sensor_id;sensor_type;location;lat;lon;timestamp;P1;durP1;ratioP1;P2;durP2;ratioP2
68608;SDS011;55581;46.718;7.690;2022-12-18T00:01:15;33.35;;;12.77;;
68608;SDS011;55581;46.718;7.690;2022-12-18T00:03:43;30.08;;;12.55;;
68608;SDS011;55581;46.718;7.690;2022-12-18T00:06:10;31.25;;;11.85;;
68608;SDS011;55581;46.718;7.690;2022-12-18T00:08:36;29.43;;;12.23;;
68608;SDS011;55581;46.718;7.690;2022-12-18T00:11:05;28.00;;;12.90;;
68608;SDS011;55581;46.718;7.690;2022-12-18T00:13:32;31.87;;;12.17;;
68608;SDS011;55581;46.718;7.690;2022-12-18T00:16:02;30.08;;;12.30;;
68608;SDS011;55581;46.718;7.690;2022-12-18T00:18:29;32.47;;;12.48;;
68608;SDS011;55581;46.718;7.690;2022-12-18T00:20:57;32.87;;;12.53;;
68608;SDS011;55581;46.718;7.690;2022-12-18T00:23:24;30.80;;;11.70;;
68608;SDS011;55581;46.718;7.690;2022-12-18T00:25:49;28.60;;;12.57;;
68608;SDS011;55581;46.718;7.690;2022-12-18T00:28:17;26.70;;;11.77;;
68608;SDS011;55581;46.718;7.690;2022-12-18T00:30:46;30.65;;;12.98;;
68608;SDS011;55581;46.718;7.690;2022-12-18T00:33:12;34.78;;;13.95;;
68608;SDS011;55581;46.718;7.690;2022-12-18T00:35:38;35.33;;;13.90;;
68608;SDS011;55581;46.718;7.690;2022-12-18T00:38:03;27.27;;;11.77;;
68608;SDS011;55581;46.718;7.690;2022-12-18T00:40:30;23.73;;;11.13;;
68608;SDS011;55581;46.718;7.690;2022-12-18T00:42:55;25.33;;;9.97;;
68608;SDS011;55581;46.718;7.690;2022-12-18T00:45:27;24.63;;;9.17;;
68608;SDS011;55581;46.718;7.690;2022-12-18T00:47:55;22.05;;;8.77;;
68608;SDS011;55581;46.718;7.690;2022-12-18T00:50:22;24.40;;;9.85;;
68608;SDS011;55581;46.718;7.690;2022-12-18T00:52:51;21.80;;;9.30;;
68608;SDS011;55581;46.718;7.690;2022-12-18T00:55:17;25.53;;;9.40;;
68608;SDS011;55581;46.718;7.690;2022-12-18T00:57:42;20.15;;;8.05;;
68608;SDS011;55581;46.718;7.690;2022-12-18T01:00:11;20.75;;;7.70;;
68608;SDS011;55581;46.718;7.690;2022-12-18T01:02:39;25.45;;;8.93;;
68608;SDS011;55581;46.718;7.690;2022-12-18T01:05:05;21.55;;;8.52;;
68608;SDS011;55581;46.718;7.690;2022-12-18T01:07:31;19.63;;;8.67;;
68608;SDS011;55581;46.718;7.690;2022-12-18T01:09:56;23.03;;;8.50;;
68608;SDS011;55581;46.718;7.690;2022-12-18T01:12:21;19.57;;;8.37;;
68608;SDS011;55581;46.718;7.690;2022-12-18T01:14:47;21.20;;;8.10;;
68608;SDS011;55581;46.718;7.690;2022-12-18T01:17:12;19.53;;;8.17;;
68608;SDS011;55581;46.718;7.690;2022-12-18T01:19:38;21.63;;;8.47;;
68608;SDS011;55581;46.718;7.690;2022-12-18T01:22:03;22.03;;;9.43;;
68608;SDS011;55581;46.718;7.690;2022-12-18T01:24:29;20.50;;;7.82;;
68608;SDS011;55581;46.718;7.690;2022-12-18T01:26:54;21.73;;;9.77;;
68608;SDS011;55581;46.718;7.690;2022-12-18T01:29:20;20.42;;;8.18;;
68608;SDS011;55581;46.718;7.690;2022-12-18T01:31:46;20.33;;;7.13;;
68608;SDS011;55581;46.718;7.690;2022-12-18T01:34:11;15.30;;;6.10;;
68608;SDS011;55581;46.718;7.690;2022-12-18T01:36:39;15.50;;;6.45;;
68608;SDS011;55581;46.718;7.690;2022-12-18T01:39:11;16.05;;;6.75;;
68608;SDS011;55581;46.718;7.690;2022-12-18T01:41:41;15.17;;;6.47;;
68608;SDS011;55581;46.718;7.690;2022-12-18T01:47:21;21.05;;;8.00;;
68608;SDS011;55581;46.718;7.690;2022-12-18T01:49:51;16.98;;;6.35;;
68608;SDS011;55581;46.718;7.690;2022-12-18T01:52:17;17.85;;;7.55;;
68608;SDS011;55581;46.718;7.690;2022-12-18T01:54:45;17.13;;;6.60;;
68608;SDS011;55581;46.718;7.690;2022-12-18T01:57:11;15.07;;;6.68;;
68608;SDS011;55581;46.718;7.690;2022-12-18T01:59:37;12.07;;;5.03;;
68608;SDS011;55581;46.718;7.690;2022-12-18T02:02:04;13.97;;;5.63;;
68608;SDS011;55581;46.718;7.690;2022-12-18T02:04:32;13.23;;;5.03;;
68608;SDS011;55581;46.718;7.690;2022-12-18T02:07:10;13.85;;;5.53;;
68608;SDS011;55581;46.718;7.690;2022-12-18T02:10:04;14.93;;;5.68;;
68608;SDS011;55581;46.718;7.690;2022-12-18T02:13:00;15.40;;;6.87;;
68608;SDS011;55581;46.718;7.690;2022-12-18T02:15:51;16.33;;;6.10;;
68608;SDS011;55581;46.718;7.690;2022-12-18T02:18:30;12.75;;;5.65;;
68608;SDS011;55581;46.718;7.690;2022-12-18T02:21:13;14.25;;;5.00;;
68608;SDS011;55581;46.718;7.690;2022-12-18T02:26:30;10.90;;;4.57;;
68608;SDS011;55581;46.718;7.690;2022-12-18T02:29:08;13.48;;;5.20;;
68608;SDS011;55581;46.718;7.690;2022-12-18T02:31:45;11.75;;;5.00;;
68608;SDS011;55581;46.718;7.690;2022-12-18T02:34:17;13.25;;;5.43;;
68608;SDS011;55581;46.718;7.690;2022-12-18T02:36:44;15.52;;;6.07;;
68608;SDS011;55581;46.718;7.690;2022-12-18T02:39:12;10.57;;;4.77;;
68608;SDS011;55581;46.718;7.690;2022-12-18T02:41:40;17.95;;;6.40;;
68608;SDS011;55581;46.718;7.690;2022-12-18T02:44:07;15.07;;;5.18;;
68608;SDS011;55581;46.718;7.690;2022-12-18T02:46:37;17.20;;;6.15;;
68608;SDS011;55581;46.718;7.690;2022-12-18T02:57:07;20.38;;;7.90;;
68608;SDS011;55581;46.718;7.690;2022-12-18T03:00:05;20.20;;;7.45;;
68608;SDS011;55581;46.718;7.690;2022-12-18T03:05:07;19.37;;;8.33;;
68608;SDS011;55581;46.718;7.690;2022-12-18T03:07:56;24.75;;;9.45;;
68608;SDS011;55581;46.718;7.690;2022-12-18T03:10:29;24.73;;;9.13;;
68608;SDS011;55581;46.718;7.690;2022-12-18T03:13:04;24.75;;;9.63;;
68608;SDS011;55581;46.718;7.690;2022-12-18T03:15:49;24.77;;;9.50;;
68608;SDS011;55581;46.718;7.690;2022-12-18T03:18:18;24.60;;;8.93;;
68608;SDS011;55581;46.718;7.690;2022-12-18T03:20:48;22.95;;;8.82;;
68608;SDS011;55581;46.718;7.690;2022-12-18T03:23:20;24.85;;;10.55;;
68608;SDS011;55581;46.718;7.690;2022-12-18T03:25:47;21.95;;;9.60;;
68608;SDS011;55581;46.718;7.690;2022-12-18T03:28:19;20.73;;;9.15;;
68608;SDS011;55581;46.718;7.690;2022-12-18T03:30:47;25.17;;;9.50;;
68608;SDS011;55581;46.718;7.690;2022-12-18T03:33:16;24.55;;;9.75;;
68608;SDS011;55581;46.718;7.690;2022-12-18T03:35:49;25.05;;;9.90;;
68608;SDS011;55581;46.718;7.690;2022-12-18T03:38:14;24.02;;;10.10;;
68608;SDS011;55581;46.718;7.690;2022-12-18T03:45:54;21.75;;;9.23;;
68608;SDS011;55581;46.718;7.690;2022-12-18T03:48:29;22.25;;;9.77;;
68608;SDS011;55581;46.718;7.690;2022-12-18T03:51:05;19.45;;;7.88;;
68608;SDS011;55581;46.718;7.690;2022-12-18T03:53:40;20.03;;;8.70;;
68608;SDS011;55581;46.718;7.690;2022-12-18T03:56:21;18.80;;;8.88;;
68608;SDS011;55581;46.718;7.690;2022-12-18T03:58:50;20.67;;;8.55;;
68608;SDS011;55581;46.718;7.690;2022-12-18T04:01:17;23.40;;;9.77;;
68608;SDS011;55581;46.718;7.690;2022-12-18T04:03:46;22.58;;;10.07;;
68608;SDS011;55581;46.718;7.690;2022-12-18T04:06:14;24.50;;;10.60;;
68608;SDS011;55581;46.718;7.690;2022-12-18T04:08:41;23.42;;;9.85;;
68608;SDS011;55581;46.718;7.690;2022-12-18T04:11:07;27.85;;;10.80;;
68608;SDS011;55581;46.718;7.690;2022-12-18T04:13:34;25.60;;;10.23;;
68608;SDS011;55581;46.718;7.690;2022-12-18T04:16:01;23.85;;;10.10;;
68608;SDS011;55581;46.718;7.690;2022-12-18T04:18:27;29.38;;;10.68;;
68608;SDS011;55581;46.718;7.690;2022-12-18T04:20:52;24.73;;;10.33;;
68608;SDS011;55581;46.718;7.690;2022-12-18T04:23:18;30.90;;;12.43;;
68608;SDS011;55581;46.718;7.690;2022-12-18T04:25:43;25.20;;;10.47;;
68608;SDS011;55581;46.718;7.690;2022-12-18T04:28:09;25.77;;;10.40;;
68608;SDS011;55581;46.718;7.690;2022-12-18T04:30:37;24.70;;;11.00;;
68608;SDS011;55581;46.718;7.690;2022-12-18T04:33:02;25.80;;;10.13;;
68608;SDS011;55581;46.718;7.690;2022-12-18T04:35:28;24.80;;;10.93;;
68608;SDS011;55581;46.718;7.690;2022-12-18T04:37:53;28.63;;;9.87;;
68608;SDS011;55581;46.718;7.690;2022-12-18T04:40:18;22.73;;;10.33;;
68608;SDS011;55581;46.718;7.690;2022-12-18T04:42:47;23.50;;;9.63;;
68608;SDS011;55581;46.718;7.690;2022-12-18T04:45:12;27.33;;;11.97;;
68608;SDS011;55581;46.718;7.690;2022-12-18T04:47:37;22.50;;;10.52;;
68608;SDS011;55581;46.718;7.690;2022-12-18T04:50:03;27.07;;;11.23;;
68608;SDS011;55581;46.718;7.690;2022-12-18T04:52:31;26.77;;;10.63;;
68608;SDS011;55581;46.718;7.690;2022-12-18T04:54:57;28.03;;;10.30;;
68608;SDS011;55581;46.718;7.690;2022-12-18T04:57:22;27.33;;;9.77;;
68608;SDS011;55581;46.718;7.690;2022-12-18T04:59:48;27.33;;;9.90;;
68608;SDS011;55581;46.718;7.690;2022-12-18T05:02:13;25.97;;;10.47;;
68608;SDS011;55581;46.718;7.690;2022-12-18T05:04:39;22.93;;;8.53;;
68608;SDS011;55581;46.718;7.690;2022-12-18T05:07:06;23.03;;;9.33;;
68608;SDS011;55581;46.718;7.690;2022-12-18T05:09:32;25.85;;;9.55;;
68608;SDS011;55581;46.718;7.690;2022-12-18T05:11:59;20.80;;;9.25;;
68608;SDS011;55581;46.718;7.690;2022-12-18T05:14:25;24.07;;;9.20;;
68608;SDS011;55581;46.718;7.690;2022-12-18T05:16:54;21.55;;;9.32;;
68608;SDS011;55581;46.718;7.690;2022-12-18T05:19:19;24.03;;;9.53;;
68608;SDS011;55581;46.718;7.690;2022-12-18T05:21:45;19.67;;;8.57;;
68608;SDS011;55581;46.718;7.690;2022-12-18T05:24:10;21.40;;;8.33;;
68608;SDS011;55581;46.718;7.690;2022-12-18T05:26:35;22.53;;;8.63;;
68608;SDS011;55581;46.718;7.690;2022-12-18T05:29:01;24.13;;;9.33;;
68608;SDS011;55581;46.718;7.690;2022-12-18T05:31:26;23.27;;;9.40;;
68608;SDS011;55581;46.718;7.690;2022-12-18T05:33:52;20.88;;;9.02;;
68608;SDS011;55581;46.718;7.690;2022-12-18T05:36:17;20.23;;;8.70;;
68608;SDS011;55581;46.718;7.690;2022-12-18T05:38:42;21.17;;;8.47;;
68608;SDS011;55581;46.718;7.690;2022-12-18T05:41:08;20.80;;;9.20;;
68608;SDS011;55581;46.718;7.690;2022-12-18T05:43:35;22.35;;;8.43;;
68608;SDS011;55581;46.718;7.690;2022-12-18T05:46:10;21.58;;;8.75;;
68608;SDS011;55581;46.718;7.690;2022-12-18T05:48:37;21.25;;;8.93;;
68608;SDS011;55581;46.718;7.690;2022-12-18T05:51:07;20.67;;;7.50;;
68608;SDS011;55581;46.718;7.690;2022-12-18T05:53:35;22.45;;;8.38;;
68608;SDS011;55581;46.718;7.690;2022-12-18T05:56:04;24.58;;;9.23;;
68608;SDS011;55581;46.718;7.690;2022-12-18T05:58:31;20.70;;;7.87;;
68608;SDS011;55581;46.718;7.690;2022-12-18T06:00:57;21.10;;;8.00;;
68608;SDS011;55581;46.718;7.690;2022-12-18T06:03:23;17.02;;;7.15;;
68608;SDS011;55581;46.718;7.690;2022-12-18T06:05:49;16.57;;;7.23;;
68608;SDS011;55581;46.718;7.690;2022-12-18T06:08:14;22.00;;;8.00;;
68608;SDS011;55581;46.718;7.690;2022-12-18T06:10:40;17.23;;;7.20;;
68608;SDS011;55581;46.718;7.690;2022-12-18T06:13:06;19.55;;;7.72;;
68608;SDS011;55581;46.718;7.690;2022-12-18T06:15:32;19.13;;;8.00;;
68608;SDS011;55581;46.718;7.690;2022-12-18T06:18:01;20.45;;;7.00;;
68608;SDS011;55581;46.718;7.690;2022-12-18T06:20:26;16.80;;;7.17;;
68608;SDS011;55581;46.718;7.690;2022-12-18T06:22:51;18.02;;;7.50;;
68608;SDS011;55581;46.718;7.690;2022-12-18T06:25:17;15.53;;;6.87;;
68608;SDS011;55581;46.718;7.690;2022-12-18T06:27:42;17.13;;;7.67;;
68608;SDS011;55581;46.718;7.690;2022-12-18T06:30:08;17.92;;;6.63;;
68608;SDS011;55581;46.718;7.690;2022-12-18T06:32:34;16.57;;;5.80;;
68608;SDS011;55581;46.718;7.690;2022-12-18T06:34:59;19.10;;;6.72;;
68608;SDS011;55581;46.718;7.690;2022-12-18T06:37:25;18.23;;;6.47;;
68608;SDS011;55581;46.718;7.690;2022-12-18T06:39:51;17.37;;;5.90;;
68608;SDS011;55581;46.718;7.690;2022-12-18T06:42:21;15.43;;;6.20;;
68608;SDS011;55581;46.718;7.690;2022-12-18T06:44:46;17.30;;;5.93;;
68608;SDS011;55581;46.718;7.690;2022-12-18T06:47:12;17.17;;;6.60;;
68608;SDS011;55581;46.718;7.690;2022-12-18T06:49:37;14.83;;;5.20;;
68608;SDS011;55581;46.718;7.690;2022-12-18T06:52:03;16.17;;;5.77;;
68608;SDS011;55581;46.718;7.690;2022-12-18T06:54:28;14.80;;;5.50;;
68608;SDS011;55581;46.718;7.690;2022-12-18T06:56:55;16.70;;;6.37;;
68608;SDS011;55581;46.718;7.690;2022-12-18T06:59:21;16.42;;;5.70;;
68608;SDS011;55581;46.718;7.690;2022-12-18T07:01:46;17.23;;;5.83;;
68608;SDS011;55581;46.718;7.690;2022-12-18T07:04:11;12.73;;;5.30;;
68608;SDS011;55581;46.718;7.690;2022-12-18T07:06:37;15.27;;;5.50;;
68608;SDS011;55581;46.718;7.690;2022-12-18T07:09:02;13.77;;;5.23;;
68608;SDS011;55581;46.718;7.690;2022-12-18T07:11:28;14.80;;;4.60;;
68608;SDS011;55581;46.718;7.690;2022-12-18T07:13:53;13.30;;;5.25;;
68608;SDS011;55581;46.718;7.690;2022-12-18T07:16:19;12.70;;;4.47;;
68608;SDS011;55581;46.718;7.690;2022-12-18T07:18:45;12.40;;;5.68;;
68608;SDS011;55581;46.718;7.690;2022-12-18T07:21:12;10.03;;;4.47;;
68608;SDS011;55581;46.718;7.690;2022-12-18T07:23:39;13.27;;;4.45;;
68608;SDS011;55581;46.718;7.690;2022-12-18T07:26:09;12.63;;;4.82;;
68608;SDS011;55581;46.718;7.690;2022-12-18T07:28:36;13.63;;;4.93;;
68608;SDS011;55581;46.718;7.690;2022-12-18T07:31:03;13.17;;;4.77;;
68608;SDS011;55581;46.718;7.690;2022-12-18T07:33:32;13.73;;;4.85;;
68608;SDS011;55581;46.718;7.690;2022-12-18T07:36:02;12.90;;;4.15;;
68608;SDS011;55581;46.718;7.690;2022-12-18T07:38:29;10.55;;;4.10;;
68608;SDS011;55581;46.718;7.690;2022-12-18T07:41:00;13.27;;;6.10;;
68608;SDS011;55581;46.718;7.690;2022-12-18T07:43:26;12.87;;;5.80;;
68608;SDS011;55581;46.718;7.690;2022-12-18T07:45:52;12.15;;;4.93;;
68608;SDS011;55581;46.718;7.690;2022-12-18T07:48:17;11.70;;;4.50;;
68608;SDS011;55581;46.718;7.690;2022-12-18T07:50:42;12.90;;;3.63;;
68608;SDS011;55581;46.718;7.690;2022-12-18T07:53:08;11.03;;;4.33;;
68608;SDS011;55581;46.718;7.690;2022-12-18T07:55:33;12.38;;;5.53;;
68608;SDS011;55581;46.718;7.690;2022-12-18T07:58:02;11.37;;;4.07;;
68608;SDS011;55581;46.718;7.690;2022-12-18T08:00:28;11.48;;;4.22;;
68608;SDS011;55581;46.718;7.690;2022-12-18T08:02:54;9.57;;;3.97;;
68608;SDS011;55581;46.718;7.690;2022-12-18T08:05:19;8.30;;;3.47;;
68608;SDS011;55581;46.718;7.690;2022-12-18T08:07:45;10.73;;;3.45;;
68608;SDS011;55581;46.718;7.690;2022-12-18T08:10:11;9.65;;;3.67;;
68608;SDS011;55581;46.718;7.690;2022-12-18T08:12:37;11.13;;;3.33;;
68608;SDS011;55581;46.718;7.690;2022-12-18T08:15:02;8.70;;;3.43;;
68608;SDS011;55581;46.718;7.690;2022-12-18T08:17:28;10.57;;;3.85;;
68608;SDS011;55581;46.718;7.690;2022-12-18T08:19:53;8.30;;;3.07;;
68608;SDS011;55581;46.718;7.690;2022-12-18T08:22:18;9.67;;;4.17;;
68608;SDS011;55581;46.718;7.690;2022-12-18T08:24:44;8.77;;;3.93;;
68608;SDS011;55581;46.718;7.690;2022-12-18T08:27:10;8.95;;;3.08;;
68608;SDS011;55581;46.718;7.690;2022-12-18T08:29:35;8.27;;;3.57;;
68608;SDS011;55581;46.718;7.690;2022-12-18T08:32:00;8.37;;;2.50;;
68608;SDS011;55581;46.718;7.690;2022-12-18T08:34:26;7.33;;;2.70;;
68608;SDS011;55581;46.718;7.690;2022-12-18T08:36:51;9.35;;;3.45;;
68608;SDS011;55581;46.718;7.690;2022-12-18T08:39:17;10.33;;;3.07;;
68608;SDS011;55581;46.718;7.690;2022-12-18T08:41:42;8.30;;;2.70;;
68608;SDS011;55581;46.718;7.690;2022-12-18T08:44:27;8.15;;;2.45;;
68608;SDS011;55581;46.718;7.690;2022-12-18T08:47:02;8.52;;;3.08;;
68608;SDS011;55581;46.718;7.690;2022-12-18T08:49:28;10.20;;;3.10;;
68608;SDS011;55581;46.718;7.690;2022-12-18T08:51:56;8.23;;;2.57;;
68608;SDS011;55581;46.718;7.690;2022-12-18T08:54:24;8.00;;;2.85;;
68608;SDS011;55581;46.718;7.690;2022-12-18T08:56:51;8.57;;;3.80;;
68608;SDS011;55581;46.718;7.690;2022-12-18T08:59:17;7.83;;;3.30;;
68608;SDS011;55581;46.718;7.690;2022-12-18T09:01:43;14.23;;;3.97;;
68608;SDS011;55581;46.718;7.690;2022-12-18T09:04:09;11.90;;;4.23;;
68608;SDS011;55581;46.718;7.690;2022-12-18T09:06:34;12.20;;;4.82;;
68608;SDS011;55581;46.718;7.690;2022-12-18T09:09:00;9.20;;;3.03;;
68608;SDS011;55581;46.718;7.690;2022-12-18T09:11:26;9.70;;;3.43;;
68608;SDS011;55581;46.718;7.690;2022-12-18T09:13:52;7.93;;;2.85;;
68608;SDS011;55581;46.718;7.690;2022-12-18T09:16:19;9.35;;;3.47;;
68608;SDS011;55581;46.718;7.690;2022-12-18T09:18:45;10.37;;;4.07;;
68608;SDS011;55581;46.718;7.690;2022-12-18T09:21:18;11.02;;;4.53;;
68608;SDS011;55581;46.718;7.690;2022-12-18T09:23:49;9.38;;;3.60;;
68608;SDS011;55581;46.718;7.690;2022-12-18T09:26:18;9.43;;;3.80;;
68608;SDS011;55581;46.718;7.690;2022-12-18T09:28:43;7.00;;;2.53;;
68608;SDS011;55581;46.718;7.690;2022-12-18T09:31:10;8.67;;;2.93;;
68608;SDS011;55581;46.718;7.690;2022-12-18T09:33:37;8.90;;;3.20;;
68608;SDS011;55581;46.718;7.690;2022-12-18T09:36:03;8.75;;;3.97;;
68608;SDS011;55581;46.718;7.690;2022-12-18T09:38:31;12.20;;;4.32;;
68608;SDS011;55581;46.718;7.690;2022-12-18T09:43:50;11.38;;;4.95;;
68608;SDS011;55581;46.718;7.690;2022-12-18T09:46:23;13.50;;;4.70;;
68608;SDS011;55581;46.718;7.690;2022-12-18T09:49:03;14.23;;;4.90;;
68608;SDS011;55581;46.718;7.690;2022-12-18T09:51:46;13.68;;;5.40;;
68608;SDS011;55581;46.718;7.690;2022-12-18T09:54:23;20.58;;;8.98;;
68608;SDS011;55581;46.718;7.690;2022-12-18T09:56:51;17.90;;;7.50;;
68608;SDS011;55581;46.718;7.690;2022-12-18T09:59:21;18.63;;;7.03;;
68608;SDS011;55581;46.718;7.690;2022-12-18T10:01:50;19.10;;;8.18;;
68608;SDS011;55581;46.718;7.690;2022-12-18T10:04:16;17.90;;;8.40;;
68608;SDS011;55581;46.718;7.690;2022-12-18T10:09:43;18.50;;;7.17;;
68608;SDS011;55581;46.718;7.690;2022-12-18T10:15:07;19.88;;;8.75;;
68608;SDS011;55581;46.718;7.690;2022-12-18T10:20:42;18.17;;;7.47;;
68608;SDS011;55581;46.718;7.690;2022-12-18T10:26:06;15.35;;;6.85;;
68608;SDS011;55581;46.718;7.690;2022-12-18T10:28:34;21.08;;;9.05;;
68608;SDS011;55581;46.718;7.690;2022-12-18T10:31:02;24.67;;;8.95;;
68608;SDS011;55581;46.718;7.690;2022-12-18T10:33:30;25.67;;;10.40;;
68608;SDS011;55581;46.718;7.690;2022-12-18T10:35:57;22.00;;;10.00;;
68608;SDS011;55581;46.718;7.690;2022-12-18T10:38:24;23.17;;;9.13;;
68608;SDS011;55581;46.718;7.690;2022-12-18T10:43:20;16.87;;;8.57;;
68608;SDS011;55581;46.718;7.690;2022-12-18T10:51:16;19.52;;;6.93;;
68608;SDS011;55581;46.718;7.690;2022-12-18T10:54:14;14.27;;;6.30;;
68608;SDS011;55581;46.718;7.690;2022-12-18T10:56:39;13.97;;;5.67;;
68608;SDS011;55581;46.718;7.690;2022-12-18T10:59:06;19.75;;;8.10;;
68608;SDS011;55581;46.718;7.690;2022-12-18T11:01:53;18.42;;;7.57;;
68608;SDS011;55581;46.718;7.690;2022-12-18T11:04:26;13.63;;;6.17;;
68608;SDS011;55581;46.718;7.690;2022-12-18T11:09:21;15.23;;;6.43;;
68608;SDS011;55581;46.718;7.690;2022-12-18T11:11:53;13.27;;;5.43;;
68608;SDS011;55581;46.718;7.690;2022-12-18T11:14:23;11.50;;;5.10;;
68608;SDS011;55581;46.718;7.690;2022-12-18T11:16:50;16.70;;;7.00;;
68608;SDS011;55581;46.718;7.690;2022-12-18T11:21:56;15.68;;;6.90;;
68608;SDS011;55581;46.718;7.690;2022-12-18T11:24:27;14.77;;;5.93;;
68608;SDS011;55581;46.718;7.690;2022-12-18T11:26:56;13.15;;;6.03;;
68608;SDS011;55581;46.718;7.690;2022-12-18T11:29:27;15.45;;;6.15;;
68608;SDS011;55581;46.718;7.690;2022-12-18T11:37:53;13.27;;;6.18;;
68608;SDS011;55581;46.718;7.690;2022-12-18T11:40:28;11.20;;;4.90;;
68608;SDS011;55581;46.718;7.690;2022-12-18T11:45:56;13.88;;;6.03;;
68608;SDS011;55581;46.718;7.690;2022-12-18T11:48:41;13.40;;;5.93;;
68608;SDS011;55581;46.718;7.690;2022-12-18T11:51:11;11.30;;;5.03;;
68608;SDS011;55581;46.718;7.690;2022-12-18T11:53:43;12.65;;;5.53;;
68608;SDS011;55581;46.718;7.690;2022-12-18T11:59:15;16.73;;;8.80;;
68608;SDS011;55581;46.718;7.690;2022-12-18T12:01:55;14.23;;;6.22;;
68608;SDS011;55581;46.718;7.690;2022-12-18T12:13:04;24.25;;;12.93;;
68608;SDS011;55581;46.718;7.690;2022-12-18T12:26:35;13.20;;;5.47;;
68608;SDS011;55581;46.718;7.690;2022-12-18T12:34:34;15.40;;;6.15;;
68608;SDS011;55581;46.718;7.690;2022-12-18T12:39:56;11.95;;;5.25;;
68608;SDS011;55581;46.718;7.690;2022-12-18T12:42:26;12.02;;;5.35;;
68608;SDS011;55581;46.718;7.690;2022-12-18T12:45:19;16.95;;;7.45;;
68608;SDS011;55581;46.718;7.690;2022-12-18T12:47:48;16.83;;;8.15;;
68608;SDS011;55581;46.718;7.690;2022-12-18T12:50:16;13.17;;;5.70;;
68608;SDS011;55581;46.718;7.690;2022-12-18T12:52:45;13.50;;;6.05;;
68608;SDS011;55581;46.718;7.690;2022-12-18T12:55:14;11.60;;;5.47;;
68608;SDS011;55581;46.718;7.690;2022-12-18T12:58:05;19.85;;;5.90;;
68608;SDS011;55581;46.718;7.690;2022-12-18T13:00:41;12.13;;;5.47;;
68608;SDS011;55581;46.718;7.690;2022-12-18T13:04:21;11.57;;;5.27;;
68608;SDS011;55581;46.718;7.690;2022-12-18T13:09:16;16.08;;;6.03;;
68608;SDS011;55581;46.718;7.690;2022-12-18T13:11:42;10.97;;;4.93;;
68608;SDS011;55581;46.718;7.690;2022-12-18T13:14:29;12.30;;;5.43;;
68608;SDS011;55581;46.718;7.690;2022-12-18T13:20:07;11.93;;;5.35;;
68608;SDS011;55581;46.718;7.690;2022-12-18T13:22:38;12.90;;;5.43;;
68608;SDS011;55581;46.718;7.690;2022-12-18T13:25:30;13.55;;;5.20;;
68608;SDS011;55581;46.718;7.690;2022-12-18T13:27:57;13.13;;;5.97;;
68608;SDS011;55581;46.718;7.690;2022-12-18T13:35:39;12.77;;;5.77;;
68608;SDS011;55581;46.718;7.690;2022-12-18T13:45:45;12.33;;;5.17;;
68608;SDS011;55581;46.718;7.690;2022-12-18T13:48:19;12.38;;;5.25;;
68608;SDS011;55581;46.718;7.690;2022-12-18T13:51:00;13.80;;;5.03;;
68608;SDS011;55581;46.718;7.690;2022-12-18T13:53:39;16.20;;;5.63;;
68608;SDS011;55581;46.718;7.690;2022-12-18T13:56:09;13.35;;;5.68;;
68608;SDS011;55581;46.718;7.690;2022-12-18T13:58:41;12.32;;;5.35;;
68608;SDS011;55581;46.718;7.690;2022-12-18T14:01:15;15.60;;;5.73;;
68608;SDS011;55581;46.718;7.690;2022-12-18T14:03:47;12.20;;;5.20;;
68608;SDS011;55581;46.718;7.690;2022-12-18T14:06:13;15.23;;;5.97;;
68608;SDS011;55581;46.718;7.690;2022-12-18T14:08:40;12.20;;;5.68;;
68608;SDS011;55581;46.718;7.690;2022-12-18T14:11:11;12.88;;;5.35;;
68608;SDS011;55581;46.718;7.690;2022-12-18T14:13:44;12.93;;;5.78;;
68608;SDS011;55581;46.718;7.690;2022-12-18T14:16:12;14.15;;;5.18;;
68608;SDS011;55581;46.718;7.690;2022-12-18T14:18:48;13.20;;;5.53;;
68608;SDS011;55581;46.718;7.690;2022-12-18T14:21:20;12.70;;;5.68;;
68608;SDS011;55581;46.718;7.690;2022-12-18T14:23:48;14.88;;;6.93;;
68608;SDS011;55581;46.718;7.690;2022-12-18T14:26:25;15.73;;;6.20;;
68608;SDS011;55581;46.718;7.690;2022-12-18T14:28:54;13.82;;;5.78;;
68608;SDS011;55581;46.718;7.690;2022-12-18T14:31:22;13.93;;;6.13;;
68608;SDS011;55581;46.718;7.690;2022-12-18T14:33:50;12.93;;;5.97;;
68608;SDS011;55581;46.718;7.690;2022-12-18T14:36:16;15.77;;;7.28;;
68608;SDS011;55581;46.718;7.690;2022-12-18T14:38:47;13.82;;;6.53;;
68608;SDS011;55581;46.718;7.690;2022-12-18T14:41:15;12.82;;;6.25;;
68608;SDS011;55581;46.718;7.690;2022-12-18T14:43:45;17.03;;;10.17;;
68608;SDS011;55581;46.718;7.690;2022-12-18T14:48:52;15.98;;;6.63;;
68608;SDS011;55581;46.718;7.690;2022-12-18T14:51:19;14.15;;;6.03;;
68608;SDS011;55581;46.718;7.690;2022-12-18T14:53:56;13.48;;;6.22;;
68608;SDS011;55581;46.718;7.690;2022-12-18T14:58:55;13.82;;;6.65;;
68608;SDS011;55581;46.718;7.690;2022-12-18T15:01:28;14.65;;;6.03;;
68608;SDS011;55581;46.718;7.690;2022-12-18T15:03:55;12.77;;;4.97;;
68608;SDS011;55581;46.718;7.690;2022-12-18T15:06:29;14.45;;;6.95;;
68608;SDS011;55581;46.718;7.690;2022-12-18T15:08:57;12.37;;;5.40;;
68608;SDS011;55581;46.718;7.690;2022-12-18T15:16:55;13.95;;;6.45;;
68608;SDS011;55581;46.718;7.690;2022-12-18T15:19:22;18.27;;;7.93;;
68608;SDS011;55581;46.718;7.690;2022-12-18T15:22:27;18.43;;;7.83;;
68608;SDS011;55581;46.718;7.690;2022-12-18T15:24:57;25.55;;;12.43;;
68608;SDS011;55581;46.718;7.690;2022-12-18T15:27:25;21.23;;;8.27;;
68608;SDS011;55581;46.718;7.690;2022-12-18T15:32:32;25.73;;;9.48;;
68608;SDS011;55581;46.718;7.690;2022-12-18T15:35:02;26.80;;;10.17;;
68608;SDS011;55581;46.718;7.690;2022-12-18T15:37:37;17.35;;;7.50;;
68608;SDS011;55581;46.718;7.690;2022-12-18T15:40:03;22.33;;;9.68;;
68608;SDS011;55581;46.718;7.690;2022-12-18T15:42:29;18.90;;;9.32;;
68608;SDS011;55581;46.718;7.690;2022-12-18T15:45:13;15.23;;;5.90;;
68608;SDS011;55581;46.718;7.690;2022-12-18T15:47:39;12.48;;;5.60;;
68608;SDS011;55581;46.718;7.690;2022-12-18T15:50:05;13.10;;;5.70;;
68608;SDS011;55581;46.718;7.690;2022-12-18T15:52:41;13.38;;;5.93;;
68608;SDS011;55581;46.718;7.690;2022-12-18T15:55:12;13.23;;;5.40;;
68608;SDS011;55581;46.718;7.690;2022-12-18T15:57:57;12.25;;;5.32;;
68608;SDS011;55581;46.718;7.690;2022-12-18T16:00:23;11.67;;;5.00;;
68608;SDS011;55581;46.718;7.690;2022-12-18T16:02:48;14.17;;;5.73;;
68608;SDS011;55581;46.718;7.690;2022-12-18T16:05:14;12.17;;;5.17;;
68608;SDS011;55581;46.718;7.690;2022-12-18T16:07:42;11.50;;;4.75;;
68608;SDS011;55581;46.718;7.690;2022-12-18T16:10:08;10.27;;;4.67;;
68608;SDS011;55581;46.718;7.690;2022-12-18T16:12:33;12.57;;;5.43;;
68608;SDS011;55581;46.718;7.690;2022-12-18T16:14:59;11.13;;;4.80;;
68608;SDS011;55581;46.718;7.690;2022-12-18T16:17:24;12.33;;;6.17;;
68608;SDS011;55581;46.718;7.690;2022-12-18T16:19:50;13.35;;;6.93;;
68608;SDS011;55581;46.718;7.690;2022-12-18T16:22:18;16.90;;;6.97;;
68608;SDS011;55581;46.718;7.690;2022-12-18T16:24:46;12.13;;;5.38;;
68608;SDS011;55581;46.718;7.690;2022-12-18T16:27:11;13.23;;;6.30;;
68608;SDS011;55581;46.718;7.690;2022-12-18T16:29:37;18.85;;;8.93;;
68608;SDS011;55581;46.718;7.690;2022-12-18T16:32:02;17.67;;;8.23;;
68608;SDS011;55581;46.718;7.690;2022-12-18T16:34:29;16.30;;;7.83;;
68608;SDS011;55581;46.718;7.690;2022-12-18T16:36:57;15.30;;;8.45;;
68608;SDS011;55581;46.718;7.690;2022-12-18T16:39:24;19.55;;;7.75;;
68608;SDS011;55581;46.718;7.690;2022-12-18T16:41:52;19.90;;;8.52;;
68608;SDS011;55581;46.718;7.690;2022-12-18T16:44:17;19.43;;;8.70;;
68608;SDS011;55581;46.718;7.690;2022-12-18T16:46:43;16.40;;;7.90;;